Terminal Aerodrome Forecast
Issued by NWS Tallahassee, FL

Home | Current Version | Previous Version | Text Only | Print | Product List | Glossary On
Versions: 1 2 3 4 5 6 7 8 9 10 11 12 13 14 15
000
FTUS42 KTAE 281700
TAFTLH
TAF
KTLH 281739Z 2818/2918 19011KT P6SM SCT025 BKN200
     FM290200 18003KT 1SM BR OVC005
     FM291500 20005KT 5SM -SHRA OVC008=

USA.gov is the U.S. government's official web portal to all federal, state and local government web resources and services.